Time;durP1;ratioP1;P1;durP2;ratioP2;P2;SDS_P1;SDS_P2;PMS_P1;PMS_P2;Temp;Humidity;BMP_temperature;BMP_pressure;BME280_temperature;BME280_humidity;BME280_pressure;Samples;Min_cycle;Max_cycle;Signal;HPM_P1;HPM_P2
2022/09/22 00:00:00;;;;;;;0.70;0.40;;;9.10;81.00;;;;;;4897021;29;20040;-75
2022/09/22 00:02:26;;;;;;;0.90;0.50;;;9.10;81.10;;;;;;4880204;29;20103;-75
2022/09/22 00:04:52;;;;;;;0.65;0.50;;;9.10;81.10;;;;;;4897401;29;20049;-75
2022/09/22 00:07:18;;;;;;;0.50;0.40;;;9.10;81.10;;;;;;4880430;29;20045;-75
2022/09/22 00:09:43;;;;;;;0.47;0.47;;;9.10;81.10;;;;;;4896848;29;20044;-75
2022/09/22 00:12:09;;;;;;;0.85;0.50;;;9.10;81.10;;;;;;4897278;29;20044;-74
2022/09/22 00:14:36;;;;;;;0.60;0.50;;;9.00;81.20;;;;;;4896902;29;20181;-75
2022/09/22 00:17:02;;;;;;;0.98;0.70;;;9.00;81.30;;;;;;4896840;29;20044;-75
2022/09/22 00:19:31;;;;;;;0.75;0.47;;;9.00;81.40;;;;;;4874300;29;20052;-75
2022/09/22 00:21:58;;;;;;;1.00;0.65;;;8.90;81.40;;;;;;4897273;29;20049;-75
2022/09/22 00:24:25;;;;;;;0.40;0.40;;;8.90;82.00;;;;;;4896879;29;20127;-75
2022/09/22 00:26:56;;;;;;;1.00;0.70;;;9.00;81.50;;;;;;4897330;29;20052;-75
2022/09/22 00:29:22;;;;;;;0.93;0.50;;;8.90;81.50;;;;;;4896868;29;20041;-75
2022/09/22 00:31:49;;;;;;;0.30;0.30;;;8.90;81.50;;;;;;4896460;29;20300;-75
2022/09/22 00:34:18;;;;;;;0.98;0.50;;;8.90;81.50;;;;;;4897138;29;20044;-75
2022/09/22 00:36:45;;;;;;;0.47;0.47;;;8.90;81.60;;;;;;4897257;29;20518;-75
2022/09/22 00:39:12;;;;;;;0.80;0.50;;;8.80;81.50;;;;;;4896130;29;20055;-75
2022/09/22 00:41:43;;;;;;;0.63;0.40;;;8.90;81.60;;;;;;4896958;29;20075;-75
2022/09/22 00:44:30;;;;;;;1.13;0.57;;;8.80;81.60;;;;;;4896784;29;20049;-75
2022/09/22 00:47:15;;;;;;;0.93;0.55;;;8.80;81.70;;;;;;4896581;29;20062;-75
2022/09/22 00:49:47;;;;;;;0.82;0.65;;;8.80;81.60;;;;;;4896396;29;20044;-75
2022/09/22 00:52:18;;;;;;;0.50;0.50;;;8.80;81.70;;;;;;4896558;29;20087;-75
2022/09/22 00:54:44;;;;;;;0.60;0.50;;;8.90;81.80;;;;;;4896328;29;20044;-75
2022/09/22 00:57:17;;;;;;;0.45;0.40;;;8.70;81.70;;;;;;4896162;29;20092;-75
2022/09/22 00:59:45;;;;;;;0.73;0.50;;;8.70;81.70;;;;;;4896231;29;20104;-75
2022/09/22 01:02:10;;;;;;;0.90;0.50;;;8.80;81.80;;;;;;4896574;29;20068;-75
2022/09/22 01:04:37;;;;;;;0.73;0.60;;;8.70;81.80;;;;;;4896483;29;20455;-75
2022/09/22 01:07:04;;;;;;;1.15;0.50;;;8.70;81.80;;;;;;4896553;29;20051;-75
2022/09/22 01:09:32;;;;;;;0.80;0.40;;;8.70;81.80;;;;;;4896716;29;20053;-75
2022/09/22 01:12:00;;;;;;;0.68;0.38;;;8.70;81.90;;;;;;4872299;29;20522;-75
2022/09/22 01:14:45;;;;;;;0.65;0.65;;;8.70;81.90;;;;;;4879596;29;20066;-75
2022/09/22 01:17:50;;;;;;;0.95;0.60;;;8.60;81.90;;;;;;4864100;29;20440;-75
2022/09/22 01:20:44;;;;;;;0.40;0.40;;;8.70;82.00;;;;;;4895783;29;20052;-75
2022/09/22 01:23:41;;;;;;;0.63;0.40;;;8.60;81.90;;;;;;4895643;29;20067;-75
2022/09/22 01:26:28;;;;;;;0.75;0.52;;;8.60;81.90;;;;;;4881789;29;20048;-75
2022/09/22 01:29:29;;;;;;;1.27;0.65;;;8.60;81.90;;;;;;4895693;29;20512;-75
2022/09/22 01:32:05;;;;;;;0.93;0.50;;;8.60;82.00;;;;;;4895391;29;20536;-75
2022/09/22 01:34:43;;;;;;;0.40;0.40;;;8.50;81.90;;;;;;4896222;29;20112;-75
2022/09/22 01:37:16;;;;;;;1.02;0.50;;;8.50;82.00;;;;;;4880113;29;20414;-75
2022/09/22 01:39:55;;;;;;;0.82;0.40;;;8.60;82.20;;;;;;4879049;29;20970;-75
2022/09/22 01:42:32;;;;;;;0.75;0.52;;;8.50;82.10;;;;;;4880715;29;20408;-75
2022/09/22 01:45:19;;;;;;;0.40;0.40;;;8.50;82.20;;;;;;4895724;29;20053;-75
2022/09/22 01:47:52;;;;;;;0.50;0.40;;;8.50;82.20;;;;;;4896214;29;20053;-75
2022/09/22 01:50:31;;;;;;;0.47;0.47;;;8.50;82.10;;;;;;4896986;29;20052;-75
2022/09/22 01:53:02;;;;;;;0.40;0.40;;;8.50;82.10;;;;;;4899244;29;20080;-75
2022/09/22 01:55:33;;;;;;;0.50;0.50;;;8.40;82.10;;;;;;4898727;29;20044;-75
2022/09/22 01:58:02;;;;;;;;;;;8.40;82.20;;;;;;4883063;29;20041;-75
2022/09/22 02:00:29;;;;;;;0.40;0.30;;;8.40;82.20;;;;;;4898922;29;19922;-75
2022/09/22 02:03:06;;;;;;;0.60;0.35;;;8.40;82.70;;;;;;4899487;29;20513;-75
2022/09/22 02:05:38;;;;;;;0.40;0.40;;;8.40;82.20;;;;;;4899439;29;20048;-75
2022/09/22 02:08:12;;;;;;;0.40;0.40;;;8.30;82.20;;;;;;4866897;29;20470;-75
2022/09/22 02:10:43;;;;;;;0.55;0.50;;;8.30;82.30;;;;;;4899150;29;20060;-75
2022/09/22 02:13:09;;;;;;;0.45;0.45;;;8.30;82.30;;;;;;4899032;29;20503;-75
2022/09/22 02:18:23;;;;;;;0.40;0.40;;;8.20;82.30;;;;;;4898588;29;20187;-75
2022/09/22 02:20:50;;;;;;;0.65;0.47;;;8.20;82.40;;;;;;4899070;29;20040;-76
2022/09/22 02:23:16;;;;;;;0.30;0.30;;;8.20;82.40;;;;;;4850753;29;20712;-75
2022/09/22 02:25:43;;;;;;;0.38;0.38;;;8.20;82.40;;;;;;4882129;29;20045;-75
2022/09/22 02:28:13;;;;;;;0.32;0.32;;;8.20;82.50;;;;;;4866538;29;20041;-75
2022/09/22 02:30:40;;;;;;;0.75;0.55;;;8.20;82.50;;;;;;4899239;29;20077;-75
2022/09/22 02:33:07;;;;;;;0.50;0.50;;;8.20;82.50;;;;;;4899040;29;20491;-75
2022/09/22 02:35:35;;;;;;;0.82;0.50;;;8.20;82.60;;;;;;4898602;29;20076;-76
2022/09/22 02:38:13;;;;;;;0.50;0.50;;;8.20;82.60;;;;;;4898839;29;20492;-75
2022/09/22 02:40:49;;;;;;;0.47;0.40;;;8.10;82.60;;;;;;4867453;29;20040;-75
2022/09/22 02:43:34;;;;;;;0.52;0.47;;;8.10;82.70;;;;;;4898160;29;20104;-75
2022/09/22 02:46:24;;;;;;;0.65;0.32;;;8.10;82.70;;;;;;4898014;29;20029;-76
2022/09/22 02:48:54;;;;;;;0.77;0.50;;;8.00;82.60;;;;;;4897945;29;20068;-75
2022/09/22 02:51:21;;;;;;;0.88;0.45;;;8.00;82.60;;;;;;4898239;29;20501;-76
2022/09/22 02:53:47;;;;;;;0.82;0.40;;;8.20;82.80;;;;;;4897950;29;20408;-75
2022/09/22 02:56:13;;;;;;;0.40;0.40;;;8.00;82.60;;;;;;4898048;29;20044;-75
2022/09/22 02:58:38;;;;;;;0.40;0.40;;;8.00;82.70;;;;;;4881134;29;20111;-76
2022/09/22 03:01:04;;;;;;;0.30;0.30;;;8.00;82.80;;;;;;4897895;29;20914;-76
2022/09/22 03:03:30;;;;;;;0.85;0.50;;;7.90;82.70;;;;;;4897639;29;20043;-76
2022/09/22 03:05:56;;;;;;;0.70;0.40;;;8.00;82.90;;;;;;4898320;29;20076;-76
2022/09/22 03:08:21;;;;;;;0.55;0.43;;;8.00;82.90;;;;;;4881117;29;20045;-76
2022/09/22 03:10:47;;;;;;;0.45;0.45;;;8.00;82.90;;;;;;4898177;29;20444;-76
2022/09/22 03:13:14;;;;;;;0.40;0.40;;;7.90;82.90;;;;;;4881608;29;20151;-76
2022/09/22 03:15:39;;;;;;;0.75;0.50;;;7.90;82.90;;;;;;4865608;29;20119;-76
2022/09/22 03:18:05;;;;;;;0.95;0.50;;;8.00;83.00;;;;;;4897801;29;20127;-76
2022/09/22 03:20:31;;;;;;;0.60;0.50;;;7.90;83.00;;;;;;4897771;29;20155;-76
2022/09/22 03:22:57;;;;;;;0.85;0.47;;;7.90;83.00;;;;;;4898178;29;20048;-76
2022/09/22 03:25:23;;;;;;;0.20;0.20;;;7.90;83.00;;;;;;4881288;29;20403;-76
2022/09/22 03:27:48;;;;;;;1.08;0.50;;;7.90;83.00;;;;;;4897907;29;20500;-76
2022/09/22 03:30:14;;;;;;;0.52;0.50;;;7.90;83.10;;;;;;4898039;29;20048;-76
2022/09/22 03:32:40;;;;;;;0.50;0.50;;;7.90;83.00;;;;;;4897826;29;20040;-76
2022/09/22 03:35:06;;;;;;;0.50;0.47;;;7.80;83.00;;;;;;4897754;29;20124;-76
2022/09/22 03:37:33;;;;;;;0.68;0.50;;;7.80;83.10;;;;;;4897482;29;20037;-76
2022/09/22 03:40:00;;;;;;;0.73;0.52;;;7.80;83.20;;;;;;4897618;29;20044;-76
2022/09/22 03:42:25;;;;;;;0.70;0.38;;;7.80;83.20;;;;;;4880500;29;20484;-76
2022/09/22 03:44:51;;;;;;;0.75;0.50;;;7.80;83.20;;;;;;4897175;29;20052;-76
2022/09/22 03:47:18;;;;;;;0.52;0.40;;;7.80;83.20;;;;;;4880677;29;20128;-76
2022/09/22 03:49:44;;;;;;;0.45;0.30;;;7.70;83.20;;;;;;4897246;29;20108;-76
2022/09/22 03:52:10;;;;;;;0.40;0.40;;;7.70;83.30;;;;;;4896971;29;20064;-76
2022/09/22 03:54:36;;;;;;;1.10;0.50;;;7.70;83.30;;;;;;4897128;29;20055;-76
2022/09/22 03:57:02;;;;;;;0.30;0.30;;;7.70;83.30;;;;;;4897418;29;20045;-76
2022/09/22 03:59:28;;;;;;;0.60;0.45;;;7.70;83.30;;;;;;4897444;29;20513;-76
2022/09/22 04:01:55;;;;;;;0.45;0.45;;;7.70;83.30;;;;;;4897691;29;20487;-76
2022/09/22 04:04:20;;;;;;;0.50;0.50;;;7.70;83.40;;;;;;4897473;29;20560;-76
2022/09/22 04:06:46;;;;;;;0.30;0.30;;;7.60;83.40;;;;;;4897315;29;20056;-76
2022/09/22 04:09:12;;;;;;;0.40;0.40;;;7.70;83.40;;;;;;4897140;29;20049;-76
2022/09/22 04:11:38;;;;;;;0.60;0.40;;;7.60;83.40;;;;;;4897195;29;20044;-76
2022/09/22 04:14:03;;;;;;;0.55;0.40;;;7.50;83.40;;;;;;4896617;29;20040;-76
2022/09/22 04:16:30;;;;;;;0.45;0.40;;;7.60;83.40;;;;;;4880281;29;20044;-76
2022/09/22 04:18:56;;;;;;;0.35;0.35;;;7.50;83.40;;;;;;4897342;29;20092;-76
2022/09/22 04:21:22;;;;;;;0.68;0.43;;;7.60;83.50;;;;;;4897236;29;20128;-76
2022/09/22 04:23:48;;;;;;;0.60;0.50;;;7.60;83.50;;;;;;4897535;29;20041;-76
2022/09/22 04:26:14;;;;;;;0.40;0.40;;;7.70;83.50;;;;;;4880141;29;20514;-75
2022/09/22 04:28:39;;;;;;;0.32;0.32;;;7.60;83.50;;;;;;4896850;29;20067;-76
2022/09/22 04:31:05;;;;;;;0.40;0.40;;;7.60;83.50;;;;;;4897143;29;20051;-76
2022/09/22 04:33:31;;;;;;;0.40;0.40;;;7.60;83.50;;;;;;4880294;29;20048;-76
2022/09/22 04:35:57;;;;;;;0.50;0.38;;;7.60;83.60;;;;;;4897174;29;20120;-76
2022/09/22 04:38:23;;;;;;;1.17;0.60;;;7.50;83.50;;;;;;4897138;29;20045;-76
2022/09/22 04:40:51;;;;;;;0.40;0.40;;;7.50;83.50;;;;;;4865209;29;20037;-76
2022/09/22 04:43:17;;;;;;;0.50;0.50;;;7.50;83.60;;;;;;4897068;29;20048;-76
2022/09/22 04:45:47;;;;;;;0.40;0.40;;;7.50;83.70;;;;;;4897030;29;20179;-76
2022/09/22 04:48:13;;;;;;;0.40;0.40;;;7.50;83.60;;;;;;4897023;29;20097;-76
2022/09/22 04:50:39;;;;;;;0.50;0.50;;;7.50;83.60;;;;;;4897467;29;20049;-76
2022/09/22 04:53:05;;;;;;;0.75;0.60;;;7.50;83.60;;;;;;4896746;29;20092;-76
2022/09/22 04:55:31;;;;;;;0.50;0.50;;;7.50;83.60;;;;;;4879991;29;20075;-76
2022/09/22 04:57:57;;;;;;;0.95;0.47;;;7.50;83.60;;;;;;4896675;29;20036;-76
2022/09/22 05:00:25;;;;;;;0.35;0.35;;;7.60;83.70;;;;;;4864930;29;20040;-76
2022/09/22 05:02:51;;;;;;;0.38;0.38;;;7.50;83.70;;;;;;4868995;29;20056;-76
2022/09/22 05:05:17;;;;;;;0.50;0.50;;;7.50;83.70;;;;;;4866482;29;20083;-76
2022/09/22 05:07:46;;;;;;;0.50;0.45;;;7.50;83.70;;;;;;4896731;29;20045;-76
2022/09/22 05:10:13;;;;;;;0.80;0.50;;;7.50;83.80;;;;;;4897025;29;20592;-76
2022/09/22 05:12:40;;;;;;;0.50;0.40;;;7.50;83.80;;;;;;4897072;29;20044;-74
2022/09/22 05:15:08;;;;;;;0.60;0.45;;;7.50;83.70;;;;;;4896792;29;20045;-76
2022/09/22 05:17:35;;;;;;;0.38;0.30;;;7.50;83.80;;;;;;4896276;29;20060;-76
2022/09/22 05:20:03;;;;;;;0.43;0.43;;;7.50;83.80;;;;;;4896341;29;20479;-77
2022/09/22 05:22:29;;;;;;;0.40;0.40;;;7.50;83.80;;;;;;4896860;29;20040;-76
2022/09/22 05:24:55;;;;;;;1.00;0.40;;;7.40;83.70;;;;;;4896510;29;20068;-76
2022/09/22 05:27:21;;;;;;;0.50;0.50;;;7.50;83.80;;;;;;4896837;29;20483;-76
2022/09/22 05:29:46;;;;;;;0.60;0.60;;;7.50;83.80;;;;;;4879443;29;20097;-75
2022/09/22 05:32:12;;;;;;;0.40;0.40;;;7.50;83.80;;;;;;4879480;29;20052;-75
2022/09/22 05:34:38;;;;;;;0.35;0.35;;;7.50;83.90;;;;;;4896278;29;20037;-76
2022/09/22 05:37:04;;;;;;;0.57;0.57;;;7.50;83.90;;;;;;4864013;29;20044;-76
2022/09/22 05:39:29;;;;;;;0.63;0.47;;;7.40;83.80;;;;;;4896499;29;20135;-75
2022/09/22 05:41:55;;;;;;;0.43;0.40;;;7.50;83.90;;;;;;4872049;29;20132;-74
2022/09/22 05:44:22;;;;;;;0.75;0.60;;;7.50;83.80;;;;;;4871634;29;20117;-75
2022/09/22 05:46:48;;;;;;;0.52;0.50;;;7.50;83.80;;;;;;4866575;29;20041;-75
2022/09/22 05:49:14;;;;;;;0.47;0.47;;;7.60;83.90;;;;;;4896252;29;20126;-75
2022/09/22 05:51:40;;;;;;;0.60;0.50;;;7.50;83.80;;;;;;4864513;29;20045;-75
2022/09/22 05:54:06;;;;;;;0.45;0.40;;;7.50;83.70;;;;;;4863945;29;20508;-75
2022/09/22 05:56:32;;;;;;;0.52;0.50;;;7.60;83.80;;;;;;4896311;29;20041;-76
2022/09/22 05:58:58;;;;;;;0.47;0.47;;;7.60;83.80;;;;;;4864383;29;20045;-75
2022/09/22 06:01:24;;;;;;;0.50;0.50;;;7.60;83.70;;;;;;4895724;29;20048;-76
2022/09/22 06:03:49;;;;;;;0.40;0.40;;;7.60;83.70;;;;;;4879671;29;20048;-75
2022/09/22 06:06:15;;;;;;;0.88;0.60;;;7.70;83.80;;;;;;4896238;29;20055;-76
2022/09/22 06:08:41;;;;;;;0.50;0.50;;;7.70;83.80;;;;;;4895863;29;20047;-75
2022/09/22 06:11:07;;;;;;;0.40;0.40;;;7.70;83.70;;;;;;4895967;29;20041;-75
2022/09/22 06:13:34;;;;;;;0.40;0.40;;;7.80;83.80;;;;;;4896093;29;20092;-76
2022/09/22 06:16:01;;;;;;;0.50;0.50;;;7.70;83.70;;;;;;4863640;29;20388;-75
2022/09/22 06:18:27;;;;;;;0.50;0.50;;;7.80;83.70;;;;;;4895564;29;20472;-75
2022/09/22 06:20:56;;;;;;;0.47;0.45;;;7.80;83.60;;;;;;4895906;29;20044;-76
2022/09/22 06:23:22;;;;;;;0.43;0.43;;;7.80;83.60;;;;;;4878719;29;20044;-76
2022/09/22 06:25:48;;;;;;;0.60;0.50;;;7.90;83.60;;;;;;4878970;29;20069;-75
2022/09/22 06:28:14;;;;;;;0.60;0.50;;;7.90;83.60;;;;;;4895870;29;20064;-75
2022/09/22 06:30:41;;;;;;;0.70;0.60;;;7.90;83.60;;;;;;4879309;29;20127;-75
2022/09/22 06:33:08;;;;;;;0.43;0.43;;;8.00;83.60;;;;;;4895702;29;20076;-76
2022/09/22 06:35:36;;;;;;;0.45;0.45;;;8.00;83.60;;;;;;4895573;29;20393;-75
2022/09/22 06:38:05;;;;;;;0.82;0.60;;;8.00;83.60;;;;;;4898705;29;20052;-75
2022/09/22 06:40:31;;;;;;;0.68;0.60;;;8.10;83.60;;;;;;4898995;29;20084;-75
2022/09/22 06:43:02;;;;;;;1.10;0.50;;;8.10;83.50;;;;;;4898770;29;20067;-75
2022/09/22 06:45:30;;;;;;;1.85;0.68;;;8.20;83.60;;;;;;4879815;29;20040;-75
2022/09/22 06:47:57;;;;;;;0.50;0.50;;;8.20;83.50;;;;;;4899221;29;20502;-75
2022/09/22 06:50:29;;;;;;;1.02;0.65;;;8.30;83.40;;;;;;4868526;29;20384;-75
2022/09/22 06:52:58;;;;;;;0.70;0.65;;;8.40;83.40;;;;;;4898872;29;20428;-75
2022/09/22 06:55:25;;;;;;;0.63;0.50;;;8.40;83.30;;;;;;4881738;29;20047;-75
2022/09/22 06:57:51;;;;;;;1.00;0.90;;;8.50;83.20;;;;;;4898904;29;20072;-75
2022/09/22 07:00:17;;;;;;;0.65;0.60;;;8.60;83.10;;;;;;4898380;29;20045;-75
2022/09/22 07:02:43;;;;;;;0.93;0.65;;;8.60;83.00;;;;;;4898360;29;20680;-75
2022/09/22 07:05:08;;;;;;;0.63;0.60;;;8.70;83.00;;;;;;4881625;29;20044;-75
2022/09/22 07:07:34;;;;;;;0.50;0.50;;;8.80;83.00;;;;;;4898443;29;20060;-76
2022/09/22 07:10:00;;;;;;;0.60;0.60;;;8.80;83.00;;;;;;4898193;29;20108;-75
2022/09/22 07:12:27;;;;;;;0.95;0.70;;;8.80;82.90;;;;;;4898043;29;20514;-76
2022/09/22 07:14:55;;;;;;;0.98;0.82;;;8.90;82.90;;;;;;4898220;29;20045;-75
2022/09/22 07:17:21;;;;;;;0.73;0.70;;;9.00;82.90;;;;;;4898360;29;20041;-75
2022/09/22 07:19:47;;;;;;;0.80;0.70;;;9.00;82.90;;;;;;4865629;29;20100;-75
2022/09/22 07:22:14;;;;;;;1.02;0.80;;;9.10;82.90;;;;;;4898488;29;20037;-75
2022/09/22 07:24:41;;;;;;;0.85;0.80;;;9.10;82.90;;;;;;4898217;29;20499;-75
2022/09/22 07:27:09;;;;;;;1.30;0.60;;;9.10;82.80;;;;;;4898105;29;20103;-75
2022/09/22 07:29:36;;;;;;;0.82;0.70;;;9.20;82.90;;;;;;4898466;29;20444;-75
2022/09/22 07:32:03;;;;;;;0.80;0.65;;;9.30;82.90;;;;;;4898117;29;20080;-75
2022/09/22 07:34:28;;;;;;;1.15;0.88;;;9.40;82.90;;;;;;4897646;29;20047;-75
2022/09/22 07:36:54;;;;;;;0.60;0.50;;;9.40;82.90;;;;;;4897981;29;20036;-75
2022/09/22 07:39:20;;;;;;;0.80;0.77;;;9.50;82.90;;;;;;4865760;29;20537;-75
2022/09/22 07:41:46;;;;;;;1.10;0.70;;;9.50;82.80;;;;;;4897992;29;20049;-75
2022/09/22 07:46:53;;;;;;;0.90;0.70;;;9.60;82.80;;;;;;4897887;29;20052;-75
2022/09/22 07:49:21;;;;;;;0.82;0.77;;;9.70;82.80;;;;;;4897157;29;20047;-75
2022/09/22 07:51:48;;;;;;;0.65;0.60;;;9.80;82.80;;;;;;4897426;29;20113;-75
2022/09/22 07:54:14;;;;;;;1.58;1.00;;;9.80;82.70;;;;;;4897520;29;20439;-75
2022/09/22 07:56:43;;;;;;;1.13;0.70;;;9.90;82.70;;;;;;4881615;29;20071;-75
2022/09/22 07:59:12;;;;;;;0.80;0.80;;;10.00;82.70;;;;;;4897492;29;20036;-75
2022/09/22 08:01:42;;;;;;;1.70;0.80;;;10.10;82.70;;;;;;4875830;29;20104;-75
2022/09/22 08:04:11;;;;;;;0.75;0.70;;;10.30;82.60;;;;;;4897448;29;20056;-75
2022/09/22 08:06:37;;;;;;;1.08;0.90;;;10.40;82.40;;;;;;4897440;29;20086;-75
2022/09/22 08:09:03;;;;;;;0.80;0.80;;;10.50;82.20;;;;;;4897469;29;20468;-75
2022/09/22 08:11:30;;;;;;;1.35;0.90;;;10.60;82.10;;;;;;4897415;29;20491;-75
2022/09/22 08:13:59;;;;;;;0.75;0.70;;;10.70;81.90;;;;;;4865148;29;20073;-74
2022/09/22 08:16:27;;;;;;;0.60;0.60;;;10.90;81.90;;;;;;4880676;29;20033;-75
2022/09/22 08:18:55;;;;;;;0.60;0.60;;;11.00;81.80;;;;;;4878998;29;20052;-74
2022/09/22 08:21:23;;;;;;;0.60;0.60;;;11.00;81.80;;;;;;4897801;29;20049;-74
2022/09/22 08:23:51;;;;;;;0.93;0.70;;;11.10;81.70;;;;;;4897333;29;20047;-74
2022/09/22 08:26:19;;;;;;;0.68;0.68;;;11.20;81.70;;;;;;4897056;29;20044;-74
2022/09/22 08:28:46;;;;;;;1.55;0.50;;;11.30;81.70;;;;;;4897274;29;20496;-74
2022/09/22 08:31:14;;;;;;;0.82;0.70;;;11.50;81.70;;;;;;4897598;29;20361;-74
2022/09/22 08:33:41;;;;;;;2.22;1.08;;;11.50;81.50;;;;;;4880876;29;20195;-74
2022/09/22 08:36:08;;;;;;;1.98;0.88;;;11.60;81.40;;;;;;4896927;29;20562;-74
2022/09/22 08:38:33;;;;;;;0.95;0.80;;;11.80;81.40;;;;;;4897383;29;20040;-74
2022/09/22 08:41:36;;;;;;;1.20;0.80;;;11.90;81.30;;;;;;4897157;29;20039;-74
2022/09/22 08:44:16;;;;;;;1.17;0.80;;;12.00;81.20;;;;;;4872090;29;20407;-74
2022/09/22 08:46:43;;;;;;;0.60;0.50;;;12.10;81.00;;;;;;4897080;29;20057;-74
2022/09/22 08:52:22;;;;;;;0.63;0.52;;;12.50;80.90;;;;;;4871517;29;20492;-74
2022/09/22 08:54:48;;;;;;;1.33;0.88;;;12.50;80.60;;;;;;4879550;29;20119;-74
2022/09/22 08:57:44;;;;;;;0.75;0.50;;;12.70;80.60;;;;;;4896773;29;20044;-74
2022/09/22 09:00:13;;;;;;;0.60;0.60;;;12.80;80.60;;;;;;4896329;29;20057;-73
2022/09/22 09:02:55;;;;;;;0.60;0.60;;;12.80;80.50;;;;;;4896131;29;20054;-74
2022/09/22 09:05:58;;;;;;;0.77;0.55;;;13.00;80.50;;;;;;4896304;29;20056;-74
2022/09/22 09:08:56;;;;;;;0.50;0.50;;;13.10;80.30;;;;;;4896275;29;20071;-74
2022/09/22 09:11:43;;;;;;;1.13;0.85;;;13.20;80.20;;;;;;4882353;29;20071;-74
2022/09/22 09:14:29;;;;;;;0.88;0.60;;;13.20;80.00;;;;;;4896304;29;20459;-74
2022/09/22 09:17:08;;;;;;;0.88;0.68;;;13.40;80.00;;;;;;4896837;29;20071;-74
2022/09/22 09:19:49;;;;;;;0.55;0.55;;;13.50;80.00;;;;;;4869326;29;20441;-73
2022/09/22 09:22:24;;;;;;;0.47;0.47;;;13.50;79.90;;;;;;4896437;29;20470;-74
2022/09/22 09:25:01;;;;;;;0.85;0.60;;;13.60;79.90;;;;;;4896909;29;20047;-74
2022/09/22 09:27:32;;;;;;;0.80;0.50;;;13.50;79.90;;;;;;4896011;29;20056;-74
2022/09/22 09:30:05;;;;;;;0.40;0.40;;;13.60;79.90;;;;;;4864096;29;20048;-73
2022/09/22 09:32:55;;;;;;;0.80;0.80;;;13.70;79.90;;;;;;4896096;29;20060;-74
2022/09/22 09:35:38;;;;;;;0.80;0.60;;;13.80;79.90;;;;;;4896105;29;20506;-73
2022/09/22 09:38:09;;;;;;;0.70;0.50;;;13.90;79.60;;;;;;4896134;29;20127;-74
2022/09/22 09:40:35;;;;;;;1.70;0.60;;;14.00;79.60;;;;;;4896674;29;20045;-74
2022/09/22 09:43:04;;;;;;;0.40;0.40;;;14.00;79.40;;;;;;4879521;29;20048;-74
2022/09/22 09:45:50;;;;;;;1.13;0.90;;;14.00;79.30;;;;;;4879183;29;20064;-73
2022/09/22 09:48:36;;;;;;;0.60;0.60;;;14.10;79.30;;;;;;4879746;29;20092;-74
2022/09/22 09:51:04;;;;;;;1.05;0.60;;;14.10;79.20;;;;;;4879488;29;20067;-74
2022/09/22 09:53:34;;;;;;;0.50;0.50;;;14.20;79.10;;;;;;4895989;29;20052;-74
2022/09/22 09:56:00;;;;;;;0.82;0.70;;;14.30;78.90;;;;;;4896337;29;20041;-74
2022/09/22 10:01:07;;;;;;;0.55;0.55;;;14.40;78.70;;;;;;4895778;29;20051;-74
2022/09/22 10:03:40;;;;;;;0.90;0.55;;;14.40;78.70;;;;;;4879002;29;20483;-73
2022/09/22 10:06:09;;;;;;;0.60;0.60;;;14.50;78.70;;;;;;4846628;29;20378;-73
2022/09/22 10:08:50;;;;;;;1.10;0.50;;;14.50;78.60;;;;;;4879664;29;20112;-74
2022/09/22 10:11:28;;;;;;;0.57;0.50;;;14.50;78.50;;;;;;4896988;29;20111;-74
2022/09/22 10:13:56;;;;;;;0.47;0.47;;;14.60;78.50;;;;;;4882433;29;20380;-74
2022/09/22 10:16:24;;;;;;;0.90;0.55;;;14.60;78.50;;;;;;4899517;29;20072;-74
2022/09/22 10:19:03;;;;;;;0.40;0.40;;;14.60;78.40;;;;;;4899251;29;20052;-74
2022/09/22 10:21:29;;;;;;;0.70;0.60;;;14.80;78.10;;;;;;4882040;29;20037;-74
2022/09/22 10:23:58;;;;;;;0.60;0.60;;;14.90;77.90;;;;;;4882140;29;20044;-74
2022/09/22 10:26:28;;;;;;;0.52;0.52;;;14.80;77.70;;;;;;4866442;29;20132;-74
2022/09/22 10:29:17;;;;;;;0.50;0.50;;;14.90;77.80;;;;;;4898985;29;20052;-74
2022/09/22 10:32:14;;;;;;;0.40;0.40;;;14.90;77.70;;;;;;4898649;29;20540;-74
2022/09/22 10:34:44;;;;;;;0.93;0.70;;;15.00;77.60;;;;;;4898988;29;20123;-74
2022/09/22 10:37:13;;;;;;;0.80;0.65;;;15.00;77.60;;;;;;4898810;29;20503;-74
2022/09/22 10:39:50;;;;;;;1.13;0.77;;;15.00;77.40;;;;;;4898810;29;20060;-73
2022/09/22 10:42:37;;;;;;;0.60;0.55;;;15.00;77.30;;;;;;4898660;29;20135;-74
2022/09/22 10:45:12;;;;;;;0.73;0.60;;;15.10;77.30;;;;;;4898617;29;20051;-74
2022/09/22 10:47:58;;;;;;;0.63;0.52;;;15.10;77.20;;;;;;4881499;29;20044;-74
2022/09/22 10:50:40;;;;;;;0.50;0.45;;;15.10;77.10;;;;;;4881525;29;20053;-74
2022/09/22 10:53:45;;;;;;;1.15;0.80;;;15.20;77.10;;;;;;4882173;29;20076;-74
2022/09/22 10:56:24;;;;;;;0.60;0.60;;;15.30;77.00;;;;;;4898301;29;20195;-74
2022/09/22 10:59:06;;;;;;;0.40;0.40;;;15.40;76.70;;;;;;4881831;29;20496;-74
2022/09/22 11:01:55;;;;;;;0.73;0.65;;;15.40;76.50;;;;;;4867675;29;20049;-74
2022/09/22 11:04:40;;;;;;;0.63;0.50;;;15.40;76.30;;;;;;4873362;29;20059;-74
2022/09/22 11:13:37;;;;;;;1.27;0.60;;;15.60;76.00;;;;;;4898260;29;20052;-74
2022/09/22 11:16:20;;;;;;;;;;;15.70;75.90;;;;;;4898271;29;20045;-74
2022/09/22 11:19:02;;;;;;;1.00;0.43;;;15.70;75.60;;;;;;4897914;29;19915;-74
2022/09/22 11:22:07;;;;;;;0.43;0.43;;;15.90;75.30;;;;;;4866893;29;20052;-74
2022/09/22 11:24:59;;;;;;;0.95;0.38;;;16.00;74.70;;;;;;4898409;29;20047;-74
2022/09/22 11:27:42;;;;;;;0.30;0.30;;;16.10;74.50;;;;;;4884007;29;20048;-73
2022/09/22 11:30:24;;;;;;;0.30;0.30;;;16.10;74.10;;;;;;4897963;29;20048;-73
2022/09/22 11:33:08;;;;;;;0.20;0.20;;;16.20;73.90;;;;;;4880815;29;20518;-73
2022/09/22 11:35:57;;;;;;;0.38;0.32;;;16.30;73.70;;;;;;4898202;29;20044;-73
2022/09/22 11:38:58;;;;;;;0.25;0.25;;;16.40;73.60;;;;;;4896890;29;20044;-73
2022/09/22 11:41:34;;;;;;;0.20;0.20;;;16.50;73.20;;;;;;4869802;29;20139;-73
2022/09/22 11:44:27;;;;;;;0.90;0.40;;;16.60;72.90;;;;;;4877971;29;20109;-73
2022/09/22 11:47:07;;;;;;;0.40;0.40;;;16.70;72.70;;;;;;4878582;29;20067;-73
2022/09/22 11:49:58;;;;;;;0.63;0.50;;;16.80;72.30;;;;;;4898047;29;20119;-73
2022/09/22 11:52:42;;;;;;;0.30;0.30;;;16.70;72.30;;;;;;4897712;29;20083;-73
2022/09/22 11:55:34;;;;;;;1.42;0.63;;;16.80;72.20;;;;;;4897650;29;20148;-73
2022/09/22 11:58:08;;;;;;;0.30;0.30;;;16.80;71.90;;;;;;4897781;29;20153;-74
2022/09/22 12:00:42;;;;;;;0.50;0.50;;;16.80;72.00;;;;;;4881731;29;20044;-73
2022/09/22 12:03:15;;;;;;;0.52;0.52;;;16.70;72.10;;;;;;4897895;29;20071;-74
2022/09/22 12:05:47;;;;;;;0.30;0.30;;;16.70;72.20;;;;;;4874345;29;20049;-73
2022/09/22 12:08:19;;;;;;;0.60;0.40;;;16.80;72.00;;;;;;4881665;29;20052;-73
2022/09/22 12:10:46;;;;;;;0.55;0.40;;;17.00;71.70;;;;;;4881856;29;20100;-74
2022/09/22 12:13:19;;;;;;;0.50;0.50;;;17.10;71.20;;;;;;4880651;29;20056;-74
2022/09/22 12:16:09;;;;;;;0.30;0.30;;;17.30;70.70;;;;;;4850236;29;20083;-74
2022/09/22 12:18:58;;;;;;;0.65;0.30;;;17.30;70.40;;;;;;4884314;29;20037;-73
2022/09/22 12:21:41;;;;;;;0.30;0.30;;;17.50;70.30;;;;;;4897366;29;20132;-73
2022/09/22 12:24:09;;;;;;;0.75;0.57;;;17.60;69.90;;;;;;4895812;29;20503;-73
2022/09/22 12:26:38;;;;;;;0.75;0.32;;;17.60;69.70;;;;;;4897742;29;20055;-73
2022/09/22 12:29:23;;;;;;;0.30;0.30;;;17.40;69.80;;;;;;4897258;29;20120;-74
2022/09/22 12:31:51;;;;;;;0.32;0.25;;;17.50;70.00;;;;;;4897017;29;20054;-73
2022/09/22 12:34:22;;;;;;;0.38;0.30;;;17.60;69.90;;;;;;4897153;29;20036;-73
2022/09/22 12:36:54;;;;;;;0.30;0.30;;;17.70;69.70;;;;;;4897558;29;20373;-73
2022/09/22 12:39:27;;;;;;;0.20;0.20;;;17.70;69.60;;;;;;4897191;29;20496;-73
2022/09/22 12:42:07;;;;;;;0.93;0.60;;;17.80;69.50;;;;;;4897245;29;20051;-73
2022/09/22 12:44:37;;;;;;;0.50;0.47;;;17.90;69.30;;;;;;4880264;29;20053;-74
2022/09/22 12:47:26;;;;;;;0.30;0.30;;;17.90;69.00;;;;;;4897451;29;20040;-73
2022/09/22 12:49:56;;;;;;;0.60;0.30;;;17.90;69.10;;;;;;4896288;29;20060;-74
2022/09/22 12:52:55;;;;;;;0.50;0.50;;;18.00;69.30;;;;;;4896669;29;20505;-73
2022/09/22 12:55:37;;;;;;;0.30;0.30;;;17.90;69.10;;;;;;4882626;29;20044;-73
2022/09/22 12:58:15;;;;;;;0.40;0.40;;;17.90;69.00;;;;;;4896831;29;20044;-72
2022/09/22 13:00:42;;;;;;;1.20;0.50;;;17.90;69.10;;;;;;4896962;29;20037;-73
2022/09/22 13:03:46;;;;;;;0.47;0.40;;;17.70;69.20;;;;;;4896807;29;20052;-74
2022/09/22 13:06:45;;;;;;;0.68;0.50;;;17.80;69.30;;;;;;4896787;29;20495;-73
2022/09/22 13:09:24;;;;;;;0.30;0.30;;;17.80;69.10;;;;;;4882880;29;20178;-73
2022/09/22 13:12:24;;;;;;;0.45;0.30;;;17.80;69.00;;;;;;4897065;29;20041;-73
2022/09/22 13:15:13;;;;;;;0.50;0.50;;;17.90;69.00;;;;;;4896943;29;20056;-73
2022/09/22 13:17:49;;;;;;;1.10;0.70;;;18.20;68.70;;;;;;4897210;29;20048;-73
2022/09/22 13:20:29;;;;;;;0.47;0.47;;;18.30;68.00;;;;;;4896887;29;20040;-73
2022/09/22 13:23:04;;;;;;;1.23;0.60;;;18.40;67.40;;;;;;4897384;29;20080;-73
2022/09/22 13:25:30;;;;;;;0.40;0.40;;;18.40;67.40;;;;;;4896612;29;20040;-73
2022/09/22 13:28:09;;;;;;;0.40;0.40;;;18.30;67.60;;;;;;4897114;29;20360;-74
2022/09/22 13:30:37;;;;;;;0.40;0.40;;;18.30;67.70;;;;;;4896263;29;20060;-74
2022/09/22 13:33:02;;;;;;;0.93;0.63;;;18.30;67.60;;;;;;4896686;29;20044;-73
2022/09/22 13:35:35;;;;;;;0.40;0.40;;;18.30;67.60;;;;;;4880144;29;20051;-73